Главная страница
METAR-TAF:

METAR-TAF

Аэропорты :

Каструп

Копенгаген, Дания

широта: 55-37N, долгота: 012-39E, высота над уровнем моря: 5 м

Текущие метеонаблюдения

Эта сводка был подготовлена 22 минут назад, в 11:20 UTC
Ветер 5 Узел от южный
Температура 16°C
Влажность 77%
Давление 1018 hPa
Видимость 10 км и более
Нет облачности ниже 1500 м, и нет кучево-дождевой облачности

METAR: EKCH 161120Z 19005KT CAVOK 16/12 Q1018 NOSIG

Время: 13:42 (11:42 UTC)

Прогноз

Эта сводка был подготовлена 42 минут назад, в 11:00 UTC
Прогноз действительный с 16-го 12 UTC до 17-го 12 UTC
Ветер 5 Узел от южный
Видимость 10 км и более
небольшая облачность на высоте 1500 фута
Вероятность 40%
С 17-го 00 UTC до 17-го 09 UTC
Ветер 2 Узел переменных направлений
Видимость: 0200 м
на высоте 100 фута
туман

TAF: EKCH 161100Z 1612/1712 18005KT 9999 FEW015 PROB40 1700/1709 VRB02KT 0200 FG VV001

Метеонаблюдения и прогнозы для более 4000 аэропортов (сводки METAR и TAF).

Имеющиеся станции представлены на карте желтыми и красными точками.

Чтобы увидеть название станции, наведите на нее мышь.

Затем щелкните, чтобы увидеть метеонаблюдения и метеопрогнозы.

Управление картой: чтобы увеличить масштаб, щелкните зеленые кнопки с черным крестиком; чтобы уменьшить масштаб, щелкните зеленую кнопку с тире; для просмотра соседних карт щелкайте зеленые стрелки.


METAR-TAF: